createdAt,value
2019-01-15T00:00:28.648Z,98377.00
2019-01-15T00:02:56.020Z,98380.00
2019-01-15T00:05:23.459Z,98387.00
2019-01-15T00:07:51.248Z,98386.00
2019-01-15T00:10:18.678Z,98378.00
2019-01-15T00:12:46.451Z,98391.00
2019-01-15T00:15:13.778Z,98398.00
2019-01-15T00:17:41.049Z,98399.00
2019-01-15T00:20:30.479Z,98395.00
2019-01-15T00:22:57.718Z,98401.00
2019-01-15T00:25:25.059Z,98411.00
2019-01-15T00:27:52.568Z,98413.00
2019-01-15T00:30:20.059Z,98422.00
2019-01-15T00:32:48.118Z,98418.00
2019-01-15T00:35:15.638Z,98420.00
2019-01-15T00:37:42.908Z,98428.00
2019-01-15T00:40:14.068Z,98439.00
2019-01-15T00:42:41.450Z,98435.00
2019-01-15T00:45:10.759Z,98442.00
2019-01-15T00:47:38.067Z,98443.00
2019-01-15T00:50:10.547Z,98442.00
2019-01-15T00:52:38.139Z,98452.00
2019-01-15T00:55:08.148Z,98458.00
2019-01-15T00:57:35.668Z,98462.00
2019-01-15T01:00:08.303Z,98464.00
2019-01-15T01:02:35.827Z,98467.00
2019-01-15T01:05:05.769Z,98472.00
2019-01-15T01:07:33.218Z,98464.00
2019-01-15T01:10:00.680Z,98477.00
2019-01-15T01:12:28.087Z,98475.00
2019-01-15T01:14:55.389Z,98477.00
2019-01-15T01:17:22.827Z,98483.00
2019-01-15T01:19:50.266Z,98481.00
2019-01-15T01:22:17.780Z,98482.00
2019-01-15T01:24:45.247Z,98483.00
2019-01-15T01:27:12.528Z,98491.00
2019-01-15T01:29:39.798Z,98479.00
2019-01-15T01:32:07.039Z,98480.00
2019-01-15T01:34:34.498Z,98484.00
2019-01-15T01:37:01.700Z,98482.00
2019-01-15T01:39:28.999Z,98482.00
2019-01-15T01:41:56.358Z,98481.00
2019-01-15T01:44:23.658Z,98484.00
2019-01-15T01:46:50.889Z,98476.00
2019-01-15T01:49:18.807Z,98484.00
2019-01-15T01:51:46.059Z,98479.00
2019-01-15T01:54:13.510Z,98480.00
2019-01-15T01:56:41.030Z,98481.00
2019-01-15T01:59:08.707Z,98485.00
2019-01-15T02:01:36.038Z,98486.00
2019-01-15T02:04:03.670Z,98490.00
2019-01-15T02:06:31.019Z,98486.00
2019-01-15T02:08:58.427Z,98496.00
2019-01-15T02:11:25.908Z,98498.00
2019-01-15T02:13:53.210Z,98504.00
2019-01-15T02:16:20.728Z,98486.00
2019-01-15T02:18:48.047Z,98493.00
2019-01-15T02:21:15.507Z,98498.00
2019-01-15T02:23:42.727Z,98501.00
2019-01-15T02:26:10.267Z,98495.00
2019-01-15T02:28:38.007Z,98498.00
2019-01-15T02:31:05.278Z,98488.00
2019-01-15T02:33:32.758Z,98500.00
2019-01-15T02:36:00.647Z,98491.00
2019-01-15T02:38:28.279Z,98492.00
2019-01-15T02:40:55.648Z,98489.00
2019-01-15T02:43:22.869Z,98491.00
2019-01-15T02:45:50.271Z,98488.00
2019-01-15T02:48:17.663Z,98490.00
2019-01-15T02:50:45.048Z,98487.00
2019-01-15T02:53:12.359Z,98488.00
2019-01-15T02:55:39.843Z,98499.00
2019-01-15T02:58:07.629Z,98495.00
2019-01-15T03:00:35.374Z,98501.00
2019-01-15T03:03:02.869Z,98488.00
2019-01-15T03:05:30.208Z,98488.00
2019-01-15T03:07:57.797Z,98490.00
2019-01-15T03:10:25.169Z,98494.00
2019-01-15T03:12:56.738Z,98498.00
2019-01-15T03:15:22.221Z,98501.00
2019-01-15T03:17:49.947Z,98490.00
2019-01-15T03:20:17.667Z,98496.00
2019-01-15T03:22:45.398Z,98491.00
2019-01-15T03:25:14.088Z,98501.00
2019-01-15T03:27:41.467Z,98495.00
2019-01-15T03:30:16.221Z,98492.00
2019-01-15T03:32:43.370Z,98488.00
2019-01-15T03:35:11.067Z,98484.00
2019-01-15T03:37:38.269Z,98477.00
2019-01-15T03:40:11.479Z,98490.00
2019-01-15T03:42:38.788Z,98498.00
2019-01-15T03:45:07.782Z,98502.00
2019-01-15T03:47:35.257Z,98493.00
2019-01-15T03:50:05.898Z,98484.00
2019-01-15T03:52:33.528Z,98495.00
2019-01-15T03:55:00.830Z,98507.00
2019-01-15T03:57:28.231Z,98508.00
2019-01-15T03:59:55.529Z,98513.00
2019-01-15T04:02:23.003Z,98526.00
2019-01-15T04:04:50.258Z,98539.00
2019-01-15T04:07:19.155Z,98516.00
2019-01-15T04:09:47.208Z,98511.00
2019-01-15T04:12:14.738Z,98521.00
2019-01-15T04:14:42.137Z,98514.00
2019-01-15T04:17:09.433Z,98504.00
2019-01-15T04:19:36.858Z,98514.00
2019-01-15T04:22:04.248Z,98520.00
2019-01-15T04:24:31.607Z,98527.00
2019-01-15T04:26:59.027Z,98542.00
2019-01-15T04:29:26.319Z,98536.00
2019-01-15T04:31:53.658Z,98526.00
2019-01-15T04:34:20.958Z,98538.00
2019-01-15T04:36:48.270Z,98540.00
2019-01-15T04:39:15.561Z,98537.00
2019-01-15T04:41:42.950Z,98531.00
2019-01-15T04:44:10.447Z,98538.00
2019-01-15T04:46:37.667Z,98525.00
2019-01-15T04:49:05.108Z,98540.00
2019-01-15T04:51:32.578Z,98528.00
2019-01-15T04:54:00.000Z,98516.00
2019-01-15T04:56:27.467Z,98544.00
2019-01-15T04:58:54.829Z,98550.00
2019-01-15T05:01:22.108Z,98555.00
2019-01-15T05:03:49.767Z,98551.00
2019-01-15T05:06:17.418Z,98560.00
2019-01-15T05:08:44.798Z,98568.00
2019-01-15T05:11:12.119Z,98561.00
2019-01-15T05:13:39.489Z,98558.00
2019-01-15T05:16:07.188Z,98580.00
2019-01-15T05:18:34.538Z,98584.00
2019-01-15T05:21:02.010Z,98580.00
2019-01-15T05:23:29.398Z,98582.00
2019-01-15T05:25:56.971Z,98588.00
2019-01-15T05:28:24.388Z,98592.00
2019-01-15T05:30:51.687Z,98593.00
2019-01-15T05:33:19.402Z,98602.00
2019-01-15T05:35:47.160Z,98610.00
2019-01-15T05:38:14.728Z,98602.00
2019-01-15T05:40:42.140Z,98601.00
2019-01-15T05:43:09.448Z,98611.00
2019-01-15T05:45:37.520Z,98605.00
2019-01-15T05:48:07.627Z,98611.00
2019-01-15T05:50:54.781Z,98620.00
2019-01-15T05:53:22.268Z,98629.00
2019-01-15T05:55:49.627Z,98621.00
2019-01-15T05:58:16.929Z,98627.00
2019-01-15T06:00:44.268Z,98619.00
2019-01-15T06:03:12.128Z,98637.00
2019-01-15T06:05:39.616Z,98642.00
2019-01-15T06:08:06.958Z,98651.00
2019-01-15T06:10:34.998Z,98643.00
2019-01-15T06:13:02.728Z,98648.00
2019-01-15T06:15:30.378Z,98648.00
2019-01-15T06:17:58.228Z,98649.00
2019-01-15T06:20:25.747Z,98658.00
2019-01-15T06:22:53.047Z,98667.00
2019-01-15T06:25:20.328Z,98656.00
2019-01-15T06:27:47.918Z,98670.00
2019-01-15T06:30:22.027Z,98667.00
2019-01-15T06:32:49.663Z,98668.00
2019-01-15T06:35:16.887Z,98674.00
2019-01-15T06:37:44.307Z,98670.00
2019-01-15T06:40:19.949Z,98680.00
2019-01-15T06:42:47.940Z,98690.00
2019-01-15T06:45:25.327Z,98689.00
2019-01-15T06:47:53.088Z,98697.00
2019-01-15T06:50:20.797Z,98688.00
2019-01-15T06:52:49.085Z,98692.00
2019-01-15T06:55:20.209Z,98701.00
2019-01-15T06:57:47.881Z,98712.00
2019-01-15T07:00:27.678Z,98706.00
2019-01-15T07:02:55.568Z,98709.00
2019-01-15T07:05:23.238Z,98711.00
2019-01-15T07:07:50.967Z,98722.00
2019-01-15T07:10:23.589Z,98725.00
2019-01-15T07:12:51.239Z,98736.00
2019-01-15T07:15:18.989Z,98735.00
2019-01-15T07:17:46.549Z,98734.00
2019-01-15T07:20:16.859Z,98744.00
2019-01-15T07:22:44.787Z,98742.00
2019-01-15T07:25:17.138Z,98738.00
2019-01-15T07:27:45.147Z,98753.00
2019-01-15T07:30:23.218Z,98753.00
2019-01-15T07:32:51.052Z,98758.00
2019-01-15T07:35:18.906Z,98764.00
2019-01-15T07:37:46.598Z,98764.00
2019-01-15T07:40:14.387Z,98773.00
2019-01-15T07:42:42.687Z,98779.00
2019-01-15T07:45:30.087Z,98781.00
2019-01-15T07:47:57.817Z,98786.00
2019-01-15T07:50:25.498Z,98774.00
2019-01-15T07:52:53.358Z,98798.00
2019-01-15T07:55:21.846Z,98796.00
2019-01-15T07:57:49.650Z,98787.00
2019-01-15T08:00:22.818Z,98784.00
2019-01-15T08:02:52.358Z,98792.00
2019-01-15T08:05:23.307Z,98799.00
2019-01-15T08:07:50.959Z,98805.00
2019-01-15T08:10:19.048Z,98795.00
2019-01-15T08:12:47.018Z,98792.00
2019-01-15T08:15:20.349Z,98802.00
2019-01-15T08:17:47.811Z,98805.00
2019-01-15T08:20:15.889Z,98802.00
2019-01-15T08:22:43.998Z,98799.00
2019-01-15T08:25:14.008Z,98801.00
2019-01-15T08:27:41.656Z,98814.00
2019-01-15T08:30:27.787Z,98806.00
2019-01-15T08:32:55.287Z,98806.00
2019-01-15T08:35:22.877Z,98801.00
2019-01-15T08:37:50.337Z,98820.00
2019-01-15T08:40:17.807Z,98804.00
2019-01-15T08:42:45.446Z,98808.00
2019-01-15T08:45:17.539Z,98818.00
2019-01-15T08:47:48.198Z,98822.00
2019-01-15T08:50:28.267Z,98826.00
2019-01-15T08:52:55.507Z,98828.00
2019-01-15T08:55:23.189Z,98824.00
2019-01-15T08:57:50.690Z,98846.00
2019-01-15T09:00:18.678Z,98835.00
2019-01-15T09:02:46.060Z,98842.00
2019-01-15T09:05:13.727Z,98841.00
2019-01-15T09:07:41.429Z,98852.00
2019-01-15T09:10:13.547Z,98864.00
2019-01-15T09:12:41.562Z,98872.00
2019-01-15T09:15:12.798Z,98864.00
2019-01-15T09:17:40.087Z,98869.00
2019-01-15T09:20:14.458Z,98861.00
2019-01-15T09:22:41.867Z,98889.00
2019-01-15T09:25:09.385Z,98883.00
2019-01-15T09:27:36.628Z,98877.00
2019-01-15T09:30:19.548Z,98886.00
2019-01-15T09:32:46.938Z,98891.00
2019-01-15T09:35:14.628Z,98897.00
2019-01-15T09:37:43.209Z,98889.00
2019-01-15T09:40:17.661Z,98887.00
2019-01-15T09:42:45.547Z,98895.00
2019-01-15T09:45:18.498Z,98890.00
2019-01-15T09:48:02.628Z,98891.00
2019-01-15T09:50:29.978Z,98881.00
2019-01-15T09:53:17.239Z,98884.00
2019-01-15T09:55:44.747Z,98888.00
2019-01-15T09:58:12.878Z,98897.00
2019-01-15T10:00:40.609Z,98873.00
2019-01-15T10:03:08.414Z,98878.00
2019-01-15T10:05:35.958Z,98871.00
2019-01-15T10:08:04.619Z,98868.00
2019-01-15T10:10:32.478Z,98865.00
2019-01-15T10:12:59.793Z,98867.00
2019-01-15T10:15:27.258Z,98871.00
2019-01-15T10:17:54.727Z,98863.00
2019-01-15T10:20:22.379Z,98859.00
2019-01-15T10:22:49.857Z,98872.00
2019-01-15T10:25:19.090Z,98861.00
2019-01-15T10:27:48.278Z,98853.00
2019-01-15T10:30:40.727Z,98849.00
2019-01-15T10:33:28.467Z,98850.00
2019-01-15T10:35:56.718Z,98845.00
2019-01-15T10:38:29.058Z,98845.00
2019-01-15T10:40:57.541Z,98832.00
2019-01-15T10:43:26.408Z,98836.00
2019-01-15T10:45:54.077Z,98828.00
2019-01-15T10:48:21.857Z,98837.00
2019-01-15T10:50:49.948Z,98820.00
2019-01-15T10:53:17.617Z,98819.00
2019-01-15T10:55:45.298Z,98807.00
2019-01-15T10:58:17.544Z,98804.00
2019-01-15T11:00:42.089Z,98797.00
2019-01-15T11:03:09.671Z,98797.00
2019-01-15T11:05:37.797Z,98793.00
2019-01-15T11:08:05.639Z,98788.00
2019-01-15T11:10:32.958Z,98798.00
2019-01-15T11:13:00.509Z,98791.00
2019-01-15T11:15:27.957Z,98778.00
2019-01-15T11:17:55.747Z,98784.00
2019-01-15T11:20:23.668Z,98778.00
2019-01-15T11:22:51.518Z,98775.00
2019-01-15T11:25:18.990Z,98770.00
2019-01-15T11:27:46.592Z,98776.00
2019-01-15T11:30:14.940Z,98776.00
2019-01-15T11:32:42.449Z,98774.00
2019-01-15T11:35:12.484Z,98777.00
2019-01-15T11:37:39.761Z,98776.00
2019-01-15T11:40:17.957Z,98771.00
2019-01-15T11:42:45.460Z,98773.00
2019-01-15T11:45:16.718Z,98776.00
2019-01-15T11:47:44.389Z,98769.00
2019-01-15T11:50:19.090Z,98774.00
2019-01-15T11:52:47.118Z,98767.00
2019-01-15T11:55:15.557Z,98762.00
2019-01-15T11:57:43.356Z,98767.00
2019-01-15T12:00:26.672Z,98752.00
2019-01-15T12:02:56.620Z,98750.00
2019-01-15T12:05:25.827Z,98751.00
2019-01-15T12:07:54.987Z,98749.00
2019-01-15T12:10:24.329Z,98753.00
2019-01-15T12:12:56.108Z,98749.00
2019-01-15T12:15:33.191Z,98748.00
2019-01-15T12:18:11.768Z,98745.00
2019-01-15T12:20:41.318Z,98749.00
2019-01-15T12:23:26.317Z,98745.00
2019-01-15T12:26:04.252Z,98748.00
2019-01-15T12:28:39.517Z,98742.00
2019-01-15T12:31:15.437Z,98733.00
2019-01-15T12:33:47.669Z,98736.00
2019-01-15T12:36:16.977Z,98737.00
2019-01-15T12:39:01.207Z,98726.00
2019-01-15T12:41:33.009Z,98728.00
2019-01-15T12:44:02.168Z,98716.00
2019-01-15T12:46:47.797Z,98702.00
2019-01-15T12:49:25.761Z,98707.00
2019-01-15T12:52:00.678Z,98701.00
2019-01-15T12:54:46.627Z,98696.00
2019-01-15T12:57:21.779Z,98689.00
2019-01-15T12:59:57.079Z,98687.00
2019-01-15T13:02:26.053Z,98685.00
2019-01-15T13:04:57.828Z,98692.00
2019-01-15T13:07:27.088Z,98687.00
2019-01-15T13:10:02.186Z,98684.00
2019-01-15T13:12:31.339Z,98694.00
2019-01-15T13:15:26.024Z,98675.00
2019-01-15T13:17:54.041Z,98686.00
2019-01-15T13:20:29.457Z,98680.00
2019-01-15T13:22:58.647Z,98678.00
2019-01-15T13:25:34.057Z,98669.00
2019-01-15T13:28:09.338Z,98688.00
2019-01-15T13:30:56.909Z,98673.00
2019-01-15T13:33:26.050Z,98669.00
2019-01-15T13:35:55.422Z,98673.00
2019-01-15T13:38:33.789Z,98679.00
2019-01-15T13:41:03.799Z,98658.00
2019-01-15T13:43:38.653Z,98659.00
2019-01-15T13:46:16.669Z,98668.00
2019-01-15T13:48:46.159Z,98667.00
2019-01-15T13:51:19.188Z,98671.00
2019-01-15T13:53:51.559Z,98676.00
2019-01-15T13:56:23.609Z,98662.00
2019-01-15T13:59:09.330Z,98639.00
2019-01-15T14:01:38.437Z,98665.00
2019-01-15T14:04:23.159Z,98667.00
2019-01-15T14:06:58.569Z,98659.00
2019-01-15T14:09:44.248Z,98655.00
2019-01-15T14:12:16.267Z,98657.00
2019-01-15T14:15:03.677Z,98652.00
2019-01-15T14:17:44.957Z,98655.00
2019-01-15T14:20:14.309Z,98649.00
2019-01-15T14:22:56.200Z,98649.00
2019-01-15T14:25:34.417Z,98654.00
2019-01-15T14:28:20.277Z,98654.00
2019-01-15T14:31:06.607Z,98655.00
2019-01-15T14:33:38.681Z,98660.00
2019-01-15T14:36:08.189Z,98662.00
2019-01-15T14:38:43.347Z,98670.00
2019-01-15T14:41:30.759Z,98650.00
2019-01-15T14:44:05.742Z,98663.00
2019-01-15T14:46:34.923Z,98656.00
2019-01-15T14:49:10.170Z,98656.00
2019-01-15T14:51:51.338Z,98656.00
2019-01-15T14:54:29.277Z,98652.00
2019-01-15T14:56:58.574Z,98651.00
2019-01-15T14:59:45.878Z,98648.00
2019-01-15T15:02:18.147Z,98657.00
2019-01-15T15:04:49.811Z,98646.00
2019-01-15T15:07:18.861Z,98650.00
2019-01-15T15:10:00.207Z,98645.00
2019-01-15T15:12:29.269Z,98649.00
2019-01-15T15:15:14.903Z,98652.00
2019-01-15T15:17:43.897Z,98654.00
2019-01-15T15:20:19.357Z,98656.00
2019-01-15T15:23:04.672Z,98663.00
2019-01-15T15:25:52.307Z,98665.00
2019-01-15T15:28:38.407Z,98664.00
2019-01-15T15:31:24.271Z,98666.00
2019-01-15T15:33:53.953Z,98678.00
2019-01-15T15:36:23.039Z,98666.00
2019-01-15T15:39:00.859Z,98665.00
2019-01-15T15:41:46.494Z,98663.00
2019-01-15T15:44:30.629Z,98672.00
2019-01-15T15:47:00.138Z,98659.00
2019-01-15T15:49:38.500Z,98668.00
2019-01-15T15:52:07.580Z,98653.00
2019-01-15T15:54:46.630Z,98659.00
2019-01-15T15:57:28.639Z,98656.00
2019-01-15T15:59:58.608Z,98658.00
2019-01-15T16:02:34.891Z,98659.00
2019-01-15T16:05:21.528Z,98659.00
2019-01-15T16:07:57.227Z,98663.00
2019-01-15T16:10:29.346Z,98663.00
2019-01-15T16:12:59.336Z,98669.00
2019-01-15T16:15:28.747Z,98667.00
2019-01-15T16:17:58.177Z,98667.00
2019-01-15T16:20:36.708Z,98668.00
2019-01-15T16:23:06.228Z,98672.00
2019-01-15T16:25:38.780Z,98683.00
2019-01-15T16:28:10.977Z,98685.00
2019-01-15T16:30:48.827Z,98676.00
2019-01-15T16:33:24.439Z,98674.00
2019-01-15T16:35:56.179Z,98665.00
2019-01-15T16:38:37.717Z,98671.00
2019-01-15T16:41:19.643Z,98669.00
2019-01-15T16:43:48.718Z,98664.00
2019-01-15T16:46:17.851Z,98664.00
2019-01-15T16:48:53.102Z,98659.00
2019-01-15T16:51:37.579Z,98658.00
2019-01-15T16:54:09.428Z,98658.00
2019-01-15T16:56:55.419Z,98656.00
2019-01-15T16:59:41.144Z,98656.00
2019-01-15T17:02:10.487Z,98664.00
2019-01-15T17:04:54.578Z,98648.00
2019-01-15T17:07:29.998Z,98655.00
2019-01-15T17:10:02.179Z,98644.00
2019-01-15T17:12:48.110Z,98646.00
2019-01-15T17:15:26.209Z,98641.00
2019-01-15T17:18:11.526Z,98643.00
2019-01-15T17:20:43.207Z,98653.00
2019-01-15T17:23:18.128Z,98643.00
2019-01-15T17:25:50.380Z,98655.00
2019-01-15T17:28:38.045Z,98659.00
2019-01-15T17:31:22.255Z,98660.00
2019-01-15T17:34:08.380Z,98661.00
2019-01-15T17:36:37.528Z,98656.00
2019-01-15T17:39:24.640Z,98653.00
2019-01-15T17:42:10.448Z,98668.00
2019-01-15T17:44:42.218Z,98676.00
2019-01-15T17:47:28.199Z,98672.00
2019-01-15T17:50:14.057Z,98679.00
2019-01-15T17:52:46.170Z,98682.00
2019-01-15T17:55:18.500Z,98674.00
2019-01-15T17:57:47.691Z,98674.00
2019-01-15T18:00:19.529Z,98675.00
2019-01-15T18:02:51.808Z,98690.00
2019-01-15T18:05:21.569Z,98700.00
2019-01-15T18:07:50.957Z,98708.00
2019-01-15T18:10:23.213Z,98704.00
2019-01-15T18:13:10.788Z,98710.00
2019-01-15T18:15:56.418Z,98690.00
2019-01-15T18:18:28.879Z,98693.00
2019-01-15T18:21:04.227Z,98697.00
2019-01-15T18:23:33.617Z,98706.00
2019-01-15T18:26:11.639Z,98699.00
2019-01-15T18:28:40.747Z,98704.00
2019-01-15T18:31:28.408Z,98709.00
2019-01-15T18:34:13.908Z,98703.00
2019-01-15T18:36:45.999Z,98694.00
2019-01-15T18:39:21.268Z,98694.00
2019-01-15T18:41:50.819Z,98682.00
2019-01-15T18:44:32.107Z,98674.00
2019-01-15T18:47:04.889Z,98668.00
2019-01-15T18:49:36.523Z,98673.00
2019-01-15T18:52:22.116Z,98683.00
2019-01-15T18:55:07.668Z,98671.00
2019-01-15T18:57:39.657Z,98657.00
2019-01-15T19:00:12.460Z,98663.00
2019-01-15T19:02:41.519Z,98665.00
2019-01-15T19:05:19.338Z,98676.00
2019-01-15T19:07:48.638Z,98669.00
2019-01-15T19:10:17.858Z,98669.00
2019-01-15T19:12:52.972Z,98669.00
2019-01-15T19:15:28.408Z,98674.00
2019-01-15T19:18:06.749Z,98676.00
2019-01-15T19:20:36.041Z,98672.00
2019-01-15T19:23:05.708Z,98682.00
2019-01-15T19:25:41.499Z,98674.00
2019-01-15T19:28:13.718Z,98683.00
2019-01-15T19:30:48.897Z,98694.00
2019-01-15T19:33:34.687Z,98687.00
2019-01-15T19:36:03.888Z,98688.00
2019-01-15T19:38:39.798Z,98685.00
2019-01-15T19:44:22.319Z,98678.00
2019-01-15T19:46:51.627Z,98689.00
2019-01-15T19:49:23.517Z,98687.00
2019-01-15T19:51:53.117Z,98689.00
2019-01-15T19:54:22.448Z,98681.00
2019-01-15T19:57:10.477Z,98671.00
2019-01-15T19:59:42.377Z,98687.00
2019-01-15T20:02:28.427Z,98684.00
2019-01-15T20:04:58.107Z,98674.00
2019-01-15T20:07:33.868Z,98665.00
2019-01-15T20:10:03.225Z,98665.00
2019-01-15T20:12:32.648Z,98656.00
2019-01-15T20:15:02.108Z,98652.00
2019-01-15T20:17:31.289Z,98644.00
2019-01-15T20:20:03.390Z,98663.00
2019-01-15T20:22:47.708Z,98660.00
2019-01-15T20:25:28.609Z,98653.00
2019-01-15T20:27:58.122Z,98647.00
2019-01-15T20:30:36.036Z,98646.00
2019-01-15T20:33:08.417Z,98651.00
2019-01-15T20:35:49.780Z,98649.00
2019-01-15T20:38:18.897Z,98645.00
2019-01-15T20:41:04.737Z,98644.00
2019-01-15T20:43:49.117Z,98630.00
2019-01-15T20:46:21.308Z,98642.00
2019-01-15T20:49:07.117Z,98639.00
2019-01-15T20:51:37.110Z,98636.00
2019-01-15T20:54:09.177Z,98638.00
2019-01-15T20:56:53.426Z,98642.00
2019-01-15T20:59:37.808Z,98635.00
2019-01-15T21:02:12.637Z,98650.00
2019-01-15T21:04:47.767Z,98650.00
2019-01-15T21:07:17.328Z,98638.00
2019-01-15T21:10:02.890Z,98639.00
2019-01-15T21:12:46.967Z,98641.00
2019-01-15T21:15:29.508Z,98635.00
2019-01-15T21:18:01.777Z,98632.00
2019-01-15T21:20:33.637Z,98641.00
2019-01-15T21:23:14.698Z,98624.00
2019-01-15T21:25:49.858Z,98633.00
2019-01-15T21:28:28.107Z,98638.00
2019-01-15T21:31:03.148Z,98635.00
2019-01-15T21:33:38.028Z,98626.00
2019-01-15T21:36:13.077Z,98628.00
2019-01-15T21:38:54.297Z,98647.00
2019-01-15T21:41:29.697Z,98638.00
2019-01-15T21:44:01.632Z,98639.00
2019-01-15T21:46:30.887Z,98649.00
2019-01-15T21:49:06.045Z,98656.00
2019-01-15T21:51:52.038Z,98656.00
2019-01-15T21:54:24.178Z,98654.00
2019-01-15T21:56:55.951Z,98656.00
2019-01-15T21:59:43.037Z,98654.00
2019-01-15T22:02:14.737Z,98651.00
2019-01-15T22:04:55.578Z,98659.00
2019-01-15T22:07:30.627Z,98641.00
2019-01-15T22:10:05.449Z,98644.00
2019-01-15T22:12:37.237Z,98640.00
2019-01-15T22:15:19.441Z,98649.00
2019-01-15T22:17:48.657Z,98632.00
2019-01-15T22:20:21.327Z,98644.00
2019-01-15T22:22:59.497Z,98633.00
2019-01-15T22:25:28.699Z,98643.00
2019-01-15T22:28:09.708Z,98645.00
2019-01-15T22:30:41.671Z,98637.00
2019-01-15T22:33:23.018Z,98621.00
2019-01-15T22:35:54.688Z,98623.00
2019-01-15T22:38:32.918Z,98630.00
2019-01-15T22:41:04.997Z,98602.00
2019-01-15T22:43:36.737Z,98606.00
2019-01-15T22:46:20.908Z,98613.00
2019-01-15T22:48:50.188Z,98606.00
2019-01-15T22:51:19.385Z,98612.00
2019-01-15T22:53:51.237Z,98610.00
2019-01-15T22:56:20.399Z,98600.00
2019-01-15T22:58:49.627Z,98604.00
2019-01-15T23:01:26.899Z,98590.00
2019-01-15T23:03:56.078Z,98586.00
2019-01-15T23:06:34.339Z,98603.00
2019-01-15T23:09:20.168Z,98587.00
2019-01-15T23:11:55.057Z,98592.00
2019-01-15T23:14:29.947Z,98595.00
2019-01-15T23:17:09.038Z,98595.00
2019-01-15T23:19:38.340Z,98592.00
2019-01-15T23:22:07.627Z,98589.00
2019-01-15T23:24:45.797Z,98598.00
2019-01-15T23:27:18.239Z,98600.00
2019-01-15T23:29:50.518Z,98595.00
2019-01-15T23:32:28.438Z,98601.00
2019-01-15T23:35:03.407Z,98591.00
2019-01-15T23:37:38.695Z,98589.00
2019-01-15T23:40:15.059Z,98582.00
2019-01-15T23:42:46.828Z,98584.00
2019-01-15T23:45:18.977Z,98586.00
2019-01-15T23:47:54.378Z,98588.00
2019-01-15T23:50:40.797Z,98579.00
2019-01-15T23:53:26.868Z,98566.00
2019-01-15T23:55:56.428Z,98565.00
2019-01-15T23:58:42.108Z,98568.00
